Time;durP1;ratioP1;P1;durP2;ratioP2;P2;SDS_P1;SDS_P2;PMS_P1;PMS_P2;Temp;Humidity;BMP_temperature;BMP_pressure;BME280_temperature;BME280_humidity;BME280_pressure;Samples;Min_cycle;Max_cycle;Signal;HPM_P1;HPM_P2
2022/06/04 00:00:09;;;;;;;7.47;3.80;;;19.50;99.90;;;;;;5008219;28;20026;-83
2022/06/04 00:02:40;;;;;;;4.20;3.60;;;19.50;99.90;;;;;;5008257;28;20109;-83
2022/06/04 00:05:08;;;;;;;4.55;4.15;;;19.40;99.90;;;;;;5006017;28;20107;-86
2022/06/04 00:07:33;;;;;;;4.90;4.22;;;19.40;99.90;;;;;;5009142;28;20033;-85
2022/06/04 00:15:30;;;;;;;4.70;4.25;;;19.40;99.90;;;;;;5010811;28;20041;-83
2022/06/04 00:17:56;;;;;;;5.22;4.40;;;19.40;99.90;;;;;;5009988;28;20075;-83
2022/06/04 00:20:22;;;;;;;4.35;3.80;;;19.40;99.90;;;;;;5009923;28;20037;-84
2022/06/04 00:22:48;;;;;;;4.90;4.40;;;19.40;99.90;;;;;;5025695;28;20390;-84
2022/06/04 00:25:15;;;;;;;6.85;3.95;;;19.40;99.90;;;;;;5008136;28;20034;-83
2022/06/04 00:27:41;;;;;;;4.15;3.75;;;19.40;99.90;;;;;;5006883;28;20033;-84
2022/06/04 00:30:07;;;;;;;4.93;4.43;;;19.40;99.90;;;;;;5011278;28;20041;-84
2022/06/04 00:32:36;;;;;;;4.82;4.32;;;19.40;99.90;;;;;;5009462;28;20030;-84
2022/06/04 00:35:06;;;;;;;4.85;3.95;;;19.40;99.90;;;;;;5009874;28;20641;-85
2022/06/04 00:37:35;;;;;;;4.28;3.72;;;19.40;99.90;;;;;;5010271;28;20120;-84
2022/06/04 00:40:02;;;;;;;4.82;4.25;;;19.40;99.90;;;;;;5015103;28;20042;-84
2022/06/04 00:42:28;;;;;;;4.90;4.43;;;19.40;99.90;;;;;;5008461;28;20040;-83
2022/06/04 00:45:44;;;;;;;5.28;3.42;;;19.40;99.90;;;;;;5008836;28;20034;-83
2022/06/04 00:48:10;;;;;;;4.43;3.92;;;19.40;99.90;;;;;;5005450;28;20113;-83
2022/06/04 00:50:39;;;;;;;4.05;3.65;;;19.40;99.90;;;;;;5009096;28;20171;-83
2022/06/04 00:53:08;;;;;;;4.03;3.53;;;19.40;99.90;;;;;;5007170;28;20461;-84
2022/06/04 00:55:47;;;;;;;4.50;4.10;;;19.40;99.90;;;;;;5007865;28;20426;-82
2022/06/04 00:58:26;;;;;;;5.90;4.57;;;19.40;99.90;;;;;;4999296;28;20117;-83
2022/06/04 01:01:07;;;;;;;3.88;3.58;;;19.40;99.90;;;;;;5010209;28;20390;-85
2022/06/04 01:04:04;;;;;;;4.35;3.65;;;19.40;99.90;;;;;;5009485;28;20053;-83
2022/06/04 01:06:36;;;;;;;4.68;4.22;;;19.40;99.90;;;;;;5008569;28;20034;-84
2022/06/04 01:09:15;;;;;;;4.97;4.50;;;19.40;99.90;;;;;;5025676;28;20041;-84
2022/06/04 01:12:13;;;;;;;5.38;4.80;;;19.50;99.90;;;;;;5003236;28;20029;-83
2022/06/04 01:15:24;;;;;;;10.02;4.68;;;19.40;99.90;;;;;;5005311;28;20058;-83
2022/06/04 01:17:56;;;;;;;4.75;3.85;;;19.40;99.90;;;;;;4971251;28;20489;-83
2022/06/04 01:20:41;;;;;;;;;;;19.40;99.90;;;;;;5019540;28;20044;-83
2022/06/04 01:23:37;;;;;;;4.97;4.47;;;19.40;99.90;;;;;;5022978;28;19913;-83
2022/06/04 01:26:14;;;;;;;4.45;4.05;;;19.40;99.90;;;;;;5008529;28;20038;-84
2022/06/04 01:28:47;;;;;;;4.13;3.83;;;19.40;99.90;;;;;;5021654;28;20034;-83
2022/06/04 01:31:18;;;;;;;5.13;4.10;;;19.30;99.90;;;;;;5007879;28;20026;-84
2022/06/04 01:33:52;;;;;;;5.32;4.30;;;19.40;99.90;;;;;;5004291;28;20038;-84
2022/06/04 01:36:23;;;;;;;5.18;4.68;;;19.30;99.90;;;;;;5017373;28;20483;-83
2022/06/04 01:39:00;;;;;;;4.45;4.05;;;19.30;99.90;;;;;;5008225;28;20525;-82
2022/06/04 01:41:52;;;;;;;4.45;4.05;;;19.30;99.90;;;;;;5005949;28;20164;-82
2022/06/04 01:44:23;;;;;;;5.28;4.68;;;19.30;99.90;;;;;;5008896;28;20034;-85
2022/06/04 01:46:53;;;;;;;5.55;4.13;;;19.30;99.90;;;;;;5008498;28;20139;-83
2022/06/04 01:49:25;;;;;;;5.32;4.13;;;19.30;99.90;;;;;;5008952;28;20038;-85
2022/06/04 01:52:00;;;;;;;4.72;4.22;;;19.30;99.90;;;;;;5009694;28;20034;-83
2022/06/04 01:54:33;;;;;;;4.80;4.30;;;19.40;99.90;;;;;;5008550;28;20034;-83
2022/06/04 01:57:10;;;;;;;4.32;3.92;;;19.40;99.90;;;;;;5020500;28;20034;-82
2022/06/04 01:59:42;;;;;;;4.78;4.28;;;19.40;99.90;;;;;;5022170;28;20030;-82
2022/06/04 02:02:13;;;;;;;5.60;4.60;;;19.40;99.90;;;;;;5007076;28;20026;-81
2022/06/04 02:04:44;;;;;;;5.85;5.35;;;19.40;99.90;;;;;;5021736;28;20395;-81
2022/06/04 02:07:31;;;;;;;5.63;4.95;;;19.30;99.90;;;;;;5008674;28;20037;-82
2022/06/04 02:10:08;;;;;;;6.00;5.40;;;19.30;99.90;;;;;;5022408;28;20042;-82
2022/06/04 02:12:36;;;;;;;5.35;4.85;;;19.30;99.90;;;;;;5017278;28;20026;-82
2022/06/04 02:15:07;;;;;;;6.03;5.43;;;19.30;99.90;;;;;;5009407;28;20041;-84
2022/06/04 02:17:35;;;;;;;5.38;4.88;;;19.30;99.90;;;;;;5015063;28;20033;-81
2022/06/04 02:20:00;;;;;;;5.90;5.20;;;19.30;99.90;;;;;;5009640;28;20046;-82
2022/06/04 02:22:26;;;;;;;7.70;5.30;;;19.20;99.90;;;;;;5008643;28;20037;-83
2022/06/04 02:24:51;;;;;;;6.93;5.82;;;19.20;99.90;;;;;;5008626;28;20454;-84
2022/06/04 02:27:17;;;;;;;5.75;4.85;;;19.20;99.90;;;;;;5004324;28;20034;-84
2022/06/04 02:29:42;;;;;;;7.63;5.88;;;19.20;99.90;;;;;;5009130;28;20030;-82
2022/06/04 02:32:20;;;;;;;5.90;5.38;;;19.20;99.90;;;;;;5008602;28;20109;-82
2022/06/04 02:35:03;;;;;;;7.78;5.80;;;19.20;99.90;;;;;;5019099;28;20053;-82
2022/06/04 02:37:46;;;;;;;6.45;5.85;;;19.10;99.90;;;;;;5005686;28;20398;-82
2022/06/04 02:40:20;;;;;;;5.43;4.82;;;19.10;99.90;;;;;;5010173;28;20045;-81
2022/06/04 02:43:05;;;;;;;5.35;4.82;;;19.10;99.90;;;;;;5013190;28;20018;-81
2022/06/04 02:45:41;;;;;;;5.82;5.22;;;19.10;99.90;;;;;;5007323;28;20041;-82
2022/06/04 02:48:22;;;;;;;6.20;5.60;;;19.10;99.90;;;;;;5007753;28;20052;-83
2022/06/04 02:50:54;;;;;;;5.60;5.10;;;19.10;99.90;;;;;;5013538;28;20041;-81
2022/06/04 02:53:20;;;;;;;;;;;19.10;99.90;;;;;;5016119;28;20044;-84
2022/06/04 02:55:52;;;;;;;4.95;4.50;;;19.10;99.90;;;;;;5014154;28;20356;-82
2022/06/04 02:58:20;;;;;;;5.78;5.28;;;19.00;99.90;;;;;;5012002;28;20483;-84
2022/06/04 03:00:53;;;;;;;6.30;5.78;;;19.10;99.90;;;;;;5011967;28;20038;-82
2022/06/04 03:03:18;;;;;;;;;;;19.00;99.90;;;;;;5011391;28;20180;-82
2022/06/04 03:05:56;;;;;;;7.57;5.88;;;19.00;99.90;;;;;;5028118;28;19989;-83
2022/06/04 03:08:22;;;;;;;6.90;6.25;;;19.00;99.90;;;;;;5011339;28;20172;-82
2022/06/04 03:10:48;;;;;;;7.35;6.65;;;19.00;99.90;;;;;;5012131;28;20108;-83
2022/06/04 03:13:13;;;;;;;6.10;5.60;;;19.00;99.90;;;;;;5012625;28;20463;-82
2022/06/04 03:15:39;;;;;;;9.18;7.22;;;19.00;99.90;;;;;;5026684;28;20060;-83
2022/06/04 03:18:05;;;;;;;5.85;5.35;;;19.00;99.90;;;;;;5012477;28;20065;-81
2022/06/04 03:20:30;;;;;;;7.13;6.03;;;19.00;99.90;;;;;;5011914;28;20045;-85
2022/06/04 03:22:56;;;;;;;7.47;6.60;;;19.00;99.90;;;;;;5023169;28;20041;-83
2022/06/04 03:25:22;;;;;;;10.35;6.80;;;19.00;99.90;;;;;;5010601;28;20034;-82
2022/06/04 03:27:48;;;;;;;6.07;5.45;;;19.00;99.90;;;;;;5024832;28;20463;-83
2022/06/04 03:30:15;;;;;;;7.32;6.63;;;19.00;99.90;;;;;;5027582;28;20068;-82
2022/06/04 03:32:41;;;;;;;6.53;5.93;;;19.00;99.90;;;;;;5012144;28;20033;-83
2022/06/04 03:35:08;;;;;;;7.78;6.03;;;19.00;99.90;;;;;;5014536;28;20040;-82
2022/06/04 03:37:34;;;;;;;7.57;6.13;;;19.00;99.90;;;;;;5016990;28;20034;-83
2022/06/04 03:40:01;;;;;;;9.48;6.53;;;19.00;99.90;;;;;;5011255;28;20040;-81
2022/06/04 03:42:26;;;;;;;8.82;6.45;;;19.00;99.90;;;;;;5011304;28;20597;-81
2022/06/04 03:44:52;;;;;;;6.80;6.13;;;19.00;99.90;;;;;;5013487;28;20049;-83
2022/06/04 03:47:19;;;;;;;6.45;5.85;;;18.90;99.90;;;;;;5012703;28;20120;-82
2022/06/04 03:49:46;;;;;;;6.18;5.65;;;18.90;99.90;;;;;;5013980;28;20041;-82
2022/06/04 03:52:12;;;;;;;6.80;6.10;;;18.90;99.90;;;;;;5013885;28;20026;-85
2022/06/04 03:54:53;;;;;;;8.35;6.65;;;18.90;99.90;;;;;;5017549;28;20072;-84
2022/06/04 03:57:41;;;;;;;7.10;6.40;;;18.80;99.90;;;;;;5018994;28;20077;-81
2022/06/04 04:00:19;;;;;;;6.88;5.88;;;18.80;99.90;;;;;;5037023;28;20045;-85
2022/06/04 04:02:49;;;;;;;7.78;5.70;;;18.80;99.90;;;;;;5018338;28;20041;-81
2022/06/04 04:05:17;;;;;;;8.00;6.38;;;18.80;99.90;;;;;;5019009;28;20057;-82
2022/06/04 04:07:42;;;;;;;6.80;6.20;;;18.80;99.90;;;;;;5013896;28;20022;-84
2022/06/04 04:10:10;;;;;;;5.78;5.28;;;18.80;99.90;;;;;;5026601;28;20376;-82
2022/06/04 04:12:36;;;;;;;5.88;5.25;;;18.80;99.90;;;;;;5012654;28;20060;-85
2022/06/04 04:15:03;;;;;;;7.68;5.03;;;18.70;99.90;;;;;;5008942;28;20582;-85
2022/06/04 04:17:28;;;;;;;5.32;4.82;;;18.80;99.90;;;;;;5006409;28;20056;-81
2022/06/04 04:19:54;;;;;;;5.82;5.32;;;18.70;99.90;;;;;;5022658;28;20062;-82
2022/06/04 04:22:20;;;;;;;5.70;4.90;;;18.70;99.90;;;;;;5023968;28;20052;-84
2022/06/04 04:24:46;;;;;;;6.88;5.63;;;18.80;99.90;;;;;;5007442;28;20065;-83
2022/06/04 04:27:11;;;;;;;5.40;4.90;;;18.70;99.90;;;;;;5006885;28;20513;-84
2022/06/04 04:29:37;;;;;;;6.05;5.55;;;18.70;99.90;;;;;;5030840;28;20080;-82
2022/06/04 04:32:04;;;;;;;6.38;5.63;;;18.70;99.90;;;;;;5010686;28;20501;-84
2022/06/04 04:34:29;;;;;;;5.63;5.13;;;18.80;99.90;;;;;;5006643;28;20034;-82
2022/06/04 04:36:55;;;;;;;6.03;5.53;;;18.80;99.90;;;;;;5025949;28;20025;-84
2022/06/04 04:39:20;;;;;;;8.27;5.90;;;18.70;99.90;;;;;;5007017;28;20044;-83
2022/06/04 04:41:46;;;;;;;7.75;5.30;;;18.70;99.90;;;;;;5022291;28;20634;-83
2022/06/04 04:44:11;;;;;;;4.85;4.45;;;18.70;99.90;;;;;;5009373;28;20483;-83
2022/06/04 04:46:37;;;;;;;6.93;5.22;;;18.70;99.90;;;;;;5009862;28;20030;-82
2022/06/04 04:49:03;;;;;;;7.00;5.85;;;18.80;99.90;;;;;;5025044;28;20049;-84
2022/06/04 04:51:30;;;;;;;5.85;5.30;;;18.80;99.90;;;;;;5023547;28;20041;-84
2022/06/04 04:53:56;;;;;;;5.57;5.07;;;18.80;99.90;;;;;;5002653;28;20383;-84
2022/06/04 04:56:24;;;;;;;6.25;5.43;;;18.80;99.90;;;;;;5007751;28;20037;-83
2022/06/04 04:58:49;;;;;;;6.40;5.30;;;18.80;99.90;;;;;;5007572;28;20029;-84
2022/06/04 05:01:17;;;;;;;5.55;5.05;;;18.70;99.90;;;;;;5009460;28;20042;-83
2022/06/04 05:03:44;;;;;;;6.35;5.53;;;18.70;99.90;;;;;;5010089;28;20032;-83
2022/06/04 05:06:11;;;;;;;8.32;5.18;;;18.60;99.90;;;;;;5011358;28;20100;-83
2022/06/04 05:08:37;;;;;;;7.30;4.80;;;18.50;99.90;;;;;;5007868;28;20429;-82
2022/06/04 05:11:12;;;;;;;5.95;5.32;;;18.50;99.90;;;;;;5022528;28;20107;-82
2022/06/04 05:13:38;;;;;;;5.47;4.97;;;18.40;99.90;;;;;;5010915;28;20522;-84
2022/06/04 05:16:04;;;;;;;5.60;4.97;;;18.40;99.90;;;;;;5012444;28;20045;-83
2022/06/04 05:18:30;;;;;;;5.45;4.93;;;18.30;99.90;;;;;;5011215;28;20034;-83
2022/06/04 05:21:11;;;;;;;5.30;4.75;;;18.30;99.90;;;;;;5007047;28;20129;-84
2022/06/04 05:23:38;;;;;;;5.40;4.80;;;18.30;99.90;;;;;;5006900;28;20545;-85
2022/06/04 05:26:04;;;;;;;5.00;4.35;;;18.30;99.90;;;;;;5007638;28;20030;-83
2022/06/04 05:28:29;;;;;;;5.55;5.05;;;18.30;99.90;;;;;;5007478;28;20574;-84
2022/06/04 05:30:55;;;;;;;6.40;5.10;;;18.30;99.90;;;;;;5007791;28;20034;-83
2022/06/04 05:33:21;;;;;;;6.13;5.30;;;18.30;99.90;;;;;;5008508;28;20032;-84
2022/06/04 05:35:46;;;;;;;6.03;5.45;;;18.30;99.90;;;;;;5006733;28;20029;-85
2022/06/04 05:38:12;;;;;;;6.00;5.05;;;18.40;99.90;;;;;;5008629;28;20076;-84
2022/06/04 05:40:37;;;;;;;6.68;4.65;;;18.40;99.90;;;;;;5011114;28;20049;-84
2022/06/04 05:43:03;;;;;;;8.02;5.15;;;18.40;99.90;;;;;;5010749;28;20085;-84
2022/06/04 05:45:28;;;;;;;6.40;4.38;;;18.40;99.90;;;;;;5010732;28;20475;-84
2022/06/04 05:47:54;;;;;;;7.07;3.88;;;18.50;99.80;;;;;;5009542;28;20118;-85
2022/06/04 05:50:19;;;;;;;5.25;4.20;;;18.50;99.60;;;;;;5025841;28;20495;-84
2022/06/04 05:52:45;;;;;;;4.70;4.20;;;18.60;99.50;;;;;;5009458;28;20026;-85
2022/06/04 05:55:10;;;;;;;4.55;4.15;;;18.60;98.70;;;;;;5009452;28;20536;-85
2022/06/04 05:57:36;;;;;;;7.30;3.80;;;18.60;98.80;;;;;;5010610;28;20038;-84
2022/06/04 06:00:07;;;;;;;3.92;3.63;;;18.60;98.90;;;;;;5009380;28;20498;-85
2022/06/04 06:02:33;;;;;;;4.38;3.97;;;18.70;99.00;;;;;;5009341;28;20475;-84
2022/06/04 06:04:58;;;;;;;4.70;4.00;;;18.70;98.20;;;;;;5009573;28;20034;-85
2022/06/04 06:07:24;;;;;;;5.57;4.45;;;18.60;98.20;;;;;;5010448;28;20038;-86
2022/06/04 06:09:49;;;;;;;4.72;4.32;;;18.60;98.40;;;;;;5025812;28;20457;-85
2022/06/04 06:12:15;;;;;;;3.75;3.45;;;18.70;98.70;;;;;;5010808;28;20030;-86
2022/06/04 06:14:41;;;;;;;3.97;3.58;;;18.80;98.00;;;;;;5025853;28;20028;-85
2022/06/04 06:17:06;;;;;;;3.72;3.42;;;18.80;97.90;;;;;;5009166;28;20064;-84
2022/06/04 06:19:33;;;;;;;4.70;3.65;;;18.90;97.20;;;;;;5009551;28;20493;-85
2022/06/04 06:21:58;;;;;;;3.40;3.10;;;19.00;97.20;;;;;;5010279;28;20030;-84
2022/06/04 06:24:24;;;;;;;3.22;2.92;;;19.00;97.10;;;;;;5013752;28;20100;-85
2022/06/04 06:26:52;;;;;;;6.30;3.60;;;19.00;97.00;;;;;;5012701;28;20038;-85
2022/06/04 06:29:19;;;;;;;4.68;3.35;;;19.10;97.10;;;;;;5013244;28;20038;-84
2022/06/04 06:31:45;;;;;;;5.78;3.20;;;19.10;96.30;;;;;;5014124;28;20718;-85
2022/06/04 06:34:11;;;;;;;3.00;2.70;;;19.20;96.50;;;;;;5014449;28;20061;-84
2022/06/04 06:36:37;;;;;;;2.88;2.67;;;19.40;96.70;;;;;;5013991;28;20483;-85
2022/06/04 06:39:02;;;;;;;3.47;3.13;;;19.60;96.70;;;;;;5013089;28;20095;-86
2022/06/04 06:41:28;;;;;;;5.95;3.85;;;19.60;96.00;;;;;;5012561;28;20110;-86
2022/06/04 06:43:54;;;;;;;3.45;2.65;;;19.60;95.70;;;;;;5013213;28;20025;-84
2022/06/04 06:46:36;;;;;;;5.93;3.42;;;19.70;95.80;;;;;;5012864;28;20037;-84
2022/06/04 06:49:10;;;;;;;4.03;3.10;;;19.70;95.90;;;;;;5013144;28;20034;-85
2022/06/04 06:51:39;;;;;;;5.78;3.78;;;19.70;95.90;;;;;;5012765;28;20482;-84
2022/06/04 06:54:04;;;;;;;4.80;3.78;;;19.80;96.20;;;;;;5014692;28;20545;-85
2022/06/04 06:56:33;;;;;;;3.90;3.20;;;19.70;96.40;;;;;;5012184;28;20068;-83
2022/06/04 06:59:00;;;;;;;5.63;3.42;;;19.70;95.80;;;;;;5012713;28;20053;-84
2022/06/04 07:01:26;;;;;;;5.90;4.03;;;19.70;96.00;;;;;;5012507;28;20037;-84
2022/06/04 07:03:53;;;;;;;3.95;3.53;;;19.60;95.90;;;;;;5012543;28;20029;-85
2022/06/04 07:06:42;;;;;;;3.88;3.47;;;19.60;96.30;;;;;;5012041;28;20099;-84
2022/06/04 07:09:20;;;;;;;3.97;3.58;;;19.60;96.50;;;;;;5013612;28;20433;-84
2022/06/04 07:11:46;;;;;;;4.20;3.75;;;19.50;96.60;;;;;;5013327;28;20138;-84
2022/06/04 07:14:13;;;;;;;3.88;3.50;;;19.60;96.90;;;;;;5028879;28;20033;-84
2022/06/04 07:16:40;;;;;;;3.58;3.28;;;19.60;96.40;;;;;;5011513;28;20601;-85
2022/06/04 07:19:06;;;;;;;4.20;3.33;;;19.80;96.60;;;;;;5012166;28;20034;-84
2022/06/04 07:21:31;;;;;;;3.95;2.97;;;19.90;96.20;;;;;;5011958;28;20057;-86
2022/06/04 07:23:58;;;;;;;3.58;3.28;;;19.90;95.50;;;;;;5013331;28;20462;-85
2022/06/04 07:26:25;;;;;;;3.92;3.55;;;20.00;94.70;;;;;;5012860;28;20375;-86
2022/06/04 07:28:50;;;;;;;4.60;2.90;;;20.00;94.50;;;;;;5012017;28;20033;-87
2022/06/04 07:31:16;;;;;;;3.58;3.08;;;20.10;95.10;;;;;;5011979;28;20025;-86
2022/06/04 07:33:47;;;;;;;4.18;3.78;;;20.20;95.20;;;;;;5012603;28;20483;-85
2022/06/04 07:36:16;;;;;;;4.28;3.65;;;20.30;95.40;;;;;;5012924;28;20105;-85
2022/06/04 07:38:42;;;;;;;4.40;4.00;;;20.40;95.10;;;;;;5013104;28;20490;-85
2022/06/04 07:41:08;;;;;;;4.05;3.65;;;20.40;95.50;;;;;;5013028;28;20034;-86
2022/06/04 07:43:33;;;;;;;6.53;4.00;;;20.50;94.90;;;;;;5012064;28;20029;-84
2022/06/04 07:45:59;;;;;;;6.43;3.95;;;20.50;94.80;;;;;;5010915;28;20543;-85
2022/06/04 07:48:25;;;;;;;7.03;3.75;;;20.60;94.20;;;;;;5013043;28;20034;-88
2022/06/04 07:50:51;;;;;;;4.38;3.72;;;20.70;94.30;;;;;;5027699;28;20379;-85
2022/06/04 07:53:16;;;;;;;7.88;4.00;;;20.70;94.50;;;;;;5011681;28;20110;-85
2022/06/04 07:55:42;;;;;;;4.10;3.75;;;20.60;93.90;;;;;;5011995;28;20029;-85
2022/06/04 07:58:09;;;;;;;4.30;3.88;;;20.70;94.30;;;;;;5012978;28;20435;-84
2022/06/04 08:00:38;;;;;;;4.40;3.67;;;20.60;94.40;;;;;;5011206;28;20030;-84
2022/06/04 08:03:07;;;;;;;4.68;3.85;;;20.60;94.70;;;;;;5011109;28;20046;-87
2022/06/04 08:05:33;;;;;;;8.05;3.63;;;20.70;94.20;;;;;;5027225;28;20030;-85
2022/06/04 08:07:59;;;;;;;5.05;4.00;;;20.70;94.80;;;;;;5013397;28;20034;-86
2022/06/04 08:10:24;;;;;;;3.85;3.55;;;20.80;94.40;;;;;;5011597;28;20038;-86
2022/06/04 08:13:09;;;;;;;6.30;3.90;;;20.80;94.00;;;;;;5011171;28;20034;-84
2022/06/04 08:15:35;;;;;;;4.88;3.47;;;20.80;94.10;;;;;;5012889;28;20030;-84
2022/06/04 08:18:00;;;;;;;6.70;3.42;;;20.90;94.40;;;;;;5013913;28;20026;-85
2022/06/04 08:20:27;;;;;;;6.53;4.05;;;21.00;93.80;;;;;;5014854;28;20475;-85
2022/06/04 08:22:52;;;;;;;8.00;3.95;;;21.00;93.40;;;;;;5013004;28;20022;-85
2022/06/04 08:25:18;;;;;;;4.63;3.83;;;21.10;93.80;;;;;;5012170;28;20026;-84
2022/06/04 08:27:44;;;;;;;4.30;3.78;;;21.10;93.50;;;;;;5011482;28;20030;-86
2022/06/04 08:30:10;;;;;;;4.50;3.42;;;21.10;93.20;;;;;;5011768;28;20041;-84
2022/06/04 08:32:36;;;;;;;7.05;3.83;;;21.10;93.40;;;;;;5012681;28;20061;-86
2022/06/04 08:35:02;;;;;;;4.90;3.75;;;21.00;93.80;;;;;;5012844;28;20488;-85
2022/06/04 08:37:28;;;;;;;4.55;3.67;;;21.20;93.60;;;;;;5011267;28;20036;-86
2022/06/04 08:39:54;;;;;;;6.15;4.00;;;21.20;93.40;;;;;;5012576;28;20042;-86
2022/06/04 08:42:41;;;;;;;4.35;3.95;;;21.30;93.10;;;;;;5029920;28;20026;-85
2022/06/04 08:45:10;;;;;;;4.40;3.90;;;21.40;93.00;;;;;;5013273;28;20183;-86
2022/06/04 08:47:42;;;;;;;7.70;4.05;;;21.70;93.40;;;;;;5013827;28;20140;-84
2022/06/04 08:50:10;;;;;;;4.55;3.22;;;22.00;92.30;;;;;;5016767;28;20034;-86
2022/06/04 08:52:41;;;;;;;4.47;3.75;;;22.40;92.70;;;;;;5020324;28;20062;-85
2022/06/04 08:58:41;;;;;;;5.25;3.45;;;22.50;91.50;;;;;;5031972;28;20229;-85
2022/06/04 09:01:15;;;;;;;5.22;3.13;;;22.70;90.20;;;;;;5033928;28;20065;-84
2022/06/04 09:03:59;;;;;;;5.78;3.92;;;22.90;90.00;;;;;;5013838;28;20026;-84
2022/06/04 09:06:32;;;;;;;7.10;4.10;;;22.90;88.70;;;;;;5029801;28;20072;-84
2022/06/04 09:09:04;;;;;;;7.38;3.83;;;22.70;88.40;;;;;;5028332;28;20034;-86
2022/06/04 09:11:47;;;;;;;4.78;3.58;;;22.70;88.60;;;;;;5011163;28;20782;-87
2022/06/04 09:14:30;;;;;;;4.47;4.07;;;22.80;89.30;;;;;;5027654;28;20113;-85
2022/06/04 09:17:06;;;;;;;4.93;3.80;;;22.90;88.10;;;;;;5010901;28;20028;-85
2022/06/04 09:19:38;;;;;;;3.55;3.25;;;23.10;89.80;;;;;;5013530;28;20030;-85
2022/06/04 09:22:21;;;;;;;5.78;3.45;;;23.20;89.80;;;;;;5011178;28;20025;-85
2022/06/04 09:24:48;;;;;;;4.55;3.67;;;23.20;87.10;;;;;;5013714;28;20049;-86
2022/06/04 09:27:35;;;;;;;4.22;3.38;;;23.40;87.00;;;;;;5013724;28;20041;-84
2022/06/04 09:30:20;;;;;;;4.40;3.65;;;23.50;87.00;;;;;;5028061;28;20128;-85
2022/06/04 09:33:07;;;;;;;4.30;3.80;;;23.60;87.50;;;;;;5016555;28;20030;-85
2022/06/04 09:35:37;;;;;;;5.43;3.35;;;23.80;88.80;;;;;;5022762;28;20137;-85
2022/06/04 09:38:02;;;;;;;3.40;3.10;;;24.10;87.30;;;;;;5018842;28;20507;-86
2022/06/04 09:40:32;;;;;;;3.70;3.35;;;24.30;85.80;;;;;;5013688;28;20040;-85
2022/06/04 09:43:13;;;;;;;5.57;3.60;;;24.40;85.90;;;;;;5011087;28;20029;-86
2022/06/04 09:45:39;;;;;;;4.07;3.40;;;24.50;86.40;;;;;;5010648;28;20057;-87
2022/06/04 09:48:19;;;;;;;3.63;3.10;;;24.60;84.60;;;;;;5013257;28;20033;-85
2022/06/04 09:50:52;;;;;;;5.10;3.45;;;24.60;83.80;;;;;;5011223;28;20037;-87
2022/06/04 09:53:22;;;;;;;4.45;3.45;;;24.60;86.20;;;;;;5011100;28;20025;-86
2022/06/04 09:55:59;;;;;;;3.78;3.00;;;24.40;85.10;;;;;;5011283;28;20022;-85
2022/06/04 09:58:34;;;;;;;4.10;3.50;;;24.40;87.20;;;;;;5010273;28;20030;-86
2022/06/04 10:01:19;;;;;;;3.08;2.78;;;24.50;85.50;;;;;;5009399;28;20052;-85
2022/06/04 10:03:57;;;;;;;5.20;3.20;;;24.70;87.10;;;;;;5009847;28;20433;-86
2022/06/04 10:06:28;;;;;;;3.67;2.80;;;24.60;85.00;;;;;;5008955;28;20022;-85
2022/06/04 10:11:53;;;;;;;5.85;3.85;;;24.70;86.10;;;;;;5010793;28;20387;-87
2022/06/04 10:14:37;;;;;;;4.45;2.75;;;25.00;83.40;;;;;;5011268;28;20030;-87
2022/06/04 10:17:15;;;;;;;7.50;3.33;;;25.20;83.20;;;;;;5008862;28;20022;-87
2022/06/04 10:19:50;;;;;;;4.40;2.70;;;25.20;81.30;;;;;;5011188;28;20045;-86
2022/06/04 10:22:16;;;;;;;3.30;3.00;;;25.30;83.00;;;;;;5010773;28;20037;-86
2022/06/04 10:24:53;;;;;;;3.30;3.00;;;25.20;82.90;;;;;;5011019;28;20026;-86
2022/06/04 10:27:48;;;;;;;3.15;2.88;;;25.10;81.70;;;;;;5009362;28;20037;-86
2022/06/04 10:30:26;;;;;;;3.20;2.90;;;25.20;84.10;;;;;;5026140;28;20030;-86
2022/06/04 10:33:28;;;;;;;5.20;2.83;;;25.20;83.00;;;;;;5009927;28;20034;-86
2022/06/04 10:36:21;;;;;;;3.97;2.53;;;25.30;81.30;;;;;;5009677;28;20363;-86
2022/06/04 10:39:14;;;;;;;2.30;2.03;;;25.40;81.10;;;;;;5027062;28;20026;-86
2022/06/04 10:42:29;;;;;;;2.20;2.00;;;25.50;81.70;;;;;;5026427;28;20087;-86
2022/06/04 10:45:09;;;;;;;2.65;2.42;;;25.90;81.40;;;;;;5008369;28;20042;-86
2022/06/04 10:47:45;;;;;;;2.97;2.55;;;26.00;78.30;;;;;;5009691;28;20033;-87
2022/06/04 10:51:25;;;;;;;4.82;2.70;;;26.00;77.70;;;;;;5011161;28;20045;-86
2022/06/04 10:54:06;;;;;;;2.83;2.28;;;26.10;78.10;;;;;;5011368;28;20454;-86
2022/06/04 10:56:53;;;;;;;5.40;2.70;;;26.10;78.40;;;;;;5025759;28;20037;-86
2022/06/04 10:59:22;;;;;;;2.70;2.40;;;26.10;78.10;;;;;;5009929;28;20092;-84
2022/06/04 11:02:02;;;;;;;4.25;2.78;;;26.10;78.20;;;;;;5010743;28;20399;-85
2022/06/04 11:04:38;;;;;;;3.15;2.33;;;26.10;78.50;;;;;;5011363;28;20044;-85
2022/06/04 11:07:28;;;;;;;4.40;2.50;;;26.20;81.10;;;;;;5025492;28;20117;-85
2022/06/04 11:09:56;;;;;;;4.22;2.70;;;26.10;79.50;;;;;;5027861;28;20116;-84
2022/06/04 11:12:45;;;;;;;3.08;2.45;;;26.10;77.90;;;;;;5013439;28;20030;-84
2022/06/04 11:15:25;;;;;;;2.90;2.63;;;26.00;77.60;;;;;;5013194;28;20105;-85
2022/06/04 11:18:05;;;;;;;2.58;2.17;;;25.90;77.90;;;;;;5013535;28;20034;-85
2022/06/04 11:20:38;;;;;;;2.30;2.10;;;25.90;78.50;;;;;;5014404;28;20049;-85
2022/06/04 11:23:25;;;;;;;2.80;2.25;;;26.00;78.80;;;;;;5012800;28;20391;-86
2022/06/04 11:25:56;;;;;;;6.38;2.58;;;26.10;79.60;;;;;;5028787;28;20045;-85
2022/06/04 11:28:26;;;;;;;3.45;3.00;;;26.20;78.30;;;;;;5013192;28;20466;-85
2022/06/04 11:31:00;;;;;;;3.53;2.03;;;26.20;77.70;;;;;;5012353;28;20037;-85
2022/06/04 11:34:06;;;;;;;6.47;2.70;;;26.30;79.10;;;;;;5014311;28;20030;-85
2022/06/04 11:37:05;;;;;;;2.90;2.35;;;26.30;77.40;;;;;;5006265;28;20045;-85
2022/06/04 11:39:53;;;;;;;3.40;2.65;;;26.20;75.60;;;;;;5012904;28;20083;-84
2022/06/04 11:42:32;;;;;;;3.97;2.60;;;26.20;77.50;;;;;;5012189;28;20037;-84
2022/06/04 11:45:22;;;;;;;3.10;2.83;;;26.20;77.40;;;;;;5012571;28;20172;-85
2022/06/04 11:48:02;;;;;;;3.20;2.63;;;26.10;76.80;;;;;;5013877;28;20055;-86
2022/06/04 11:50:33;;;;;;;5.10;2.85;;;26.00;75.50;;;;;;5028924;28;20398;-85
2022/06/04 11:53:27;;;;;;;3.38;2.78;;;26.10;79.70;;;;;;5013223;28;20489;-85
2022/06/04 11:56:05;;;;;;;3.35;2.90;;;26.00;75.90;;;;;;5012758;28;20037;-85
2022/06/04 11:58:56;;;;;;;4.55;2.95;;;26.10;76.30;;;;;;5012403;28;20038;-85
2022/06/04 12:01:34;;;;;;;3.50;2.92;;;26.10;76.70;;;;;;5012927;28;20068;-85
2022/06/04 12:04:09;;;;;;;4.13;2.97;;;26.20;76.60;;;;;;5013127;28;20033;-85
2022/06/04 12:06:45;;;;;;;4.13;3.40;;;26.30;76.80;;;;;;5012611;28;20113;-85
2022/06/04 12:09:37;;;;;;;3.97;3.38;;;26.30;74.40;;;;;;5011693;28;20109;-84
2022/06/04 12:12:16;;;;;;;4.72;3.25;;;26.10;75.60;;;;;;5027659;28;20048;-85
2022/06/04 12:14:53;;;;;;;8.00;3.40;;;26.20;78.50;;;;;;5011973;28;20082;-84
2022/06/04 12:17:24;;;;;;;5.38;3.35;;;26.40;77.90;;;;;;5011179;28;20088;-85
2022/06/04 12:25:47;;;;;;;4.32;2.97;;;26.90;79.20;;;;;;4999567;28;20121;-86
2022/06/04 12:28:31;;;;;;;3.33;2.72;;;27.30;76.50;;;;;;5012753;28;20088;-85
2022/06/04 12:31:00;;;;;;;4.57;2.90;;;27.60;76.00;;;;;;5027664;28;20128;-85
2022/06/04 12:33:35;;;;;;;3.10;2.80;;;27.90;77.50;;;;;;5011660;28;20117;-87
2022/06/04 12:36:07;;;;;;;3.92;2.80;;;28.30;74.40;;;;;;5011379;28;20030;-86
2022/06/04 12:38:40;;;;;;;4.18;2.65;;;28.60;73.50;;;;;;5028208;28;20497;-86
2022/06/04 12:41:19;;;;;;;6.25;2.60;;;28.80;70.50;;;;;;5011264;28;20119;-85
2022/06/04 12:43:47;;;;;;;4.15;3.28;;;29.10;73.00;;;;;;5011660;28;20026;-86
2022/06/04 12:46:21;;;;;;;4.03;2.47;;;29.20;70.60;;;;;;5011279;28;20026;-86
2022/06/04 12:49:26;;;;;;;3.28;2.30;;;29.20;70.20;;;;;;5012818;28;20029;-86
2022/06/04 12:52:06;;;;;;;4.80;2.58;;;29.10;68.70;;;;;;5013541;28;20060;-86
2022/06/04 12:54:39;;;;;;;5.72;2.17;;;29.10;71.50;;;;;;5016088;28;20037;-85
2022/06/04 12:57:21;;;;;;;2.47;2.20;;;29.20;68.60;;;;;;5016908;28;20026;-85
2022/06/04 12:59:52;;;;;;;3.42;2.40;;;29.10;68.20;;;;;;5012294;28;20046;-87
2022/06/04 13:02:35;;;;;;;3.13;2.58;;;29.00;69.70;;;;;;5028642;28;20041;-86
2022/06/04 13:05:13;;;;;;;3.20;2.58;;;29.00;68.80;;;;;;5012758;28;20095;-86
2022/06/04 13:08:11;;;;;;;2.55;2.28;;;29.20;69.50;;;;;;5013506;28;20018;-87
2022/06/04 13:10:51;;;;;;;3.55;2.40;;;29.30;67.30;;;;;;5027477;28;20117;-86
2022/06/04 13:13:24;;;;;;;2.85;1.60;;;29.20;67.00;;;;;;5012492;28;20033;-88
2022/06/04 13:16:01;;;;;;;3.45;2.10;;;29.30;67.00;;;;;;5026615;28;20069;-87
2022/06/04 13:18:33;;;;;;;2.90;2.10;;;29.40;66.60;;;;;;5012669;28;20030;-86
2022/06/04 13:21:21;;;;;;;3.45;1.83;;;29.70;64.80;;;;;;5010230;28;20037;-86
2022/06/04 13:23:55;;;;;;;3.38;2.30;;;29.50;66.20;;;;;;5011889;28;20121;-85
2022/06/04 13:26:34;;;;;;;2.70;1.83;;;29.50;65.70;;;;;;5009607;28;20032;-84
2022/06/04 13:29:01;;;;;;;3.50;2.22;;;29.40;64.50;;;;;;5010056;28;20520;-85
2022/06/04 13:31:31;;;;;;;2.10;1.90;;;29.10;65.50;;;;;;5009227;28;20450;-86
2022/06/04 13:34:09;;;;;;;2.15;1.95;;;28.90;66.80;;;;;;5010226;28;20099;-86